sensor_id;sensor_type;location;lat;lon;timestamp;temperature;humidity
46634;DHT22;32362;49.986;8.026;2023-03-14T00:04:20;9.90;99.90
46634;DHT22;32362;49.986;8.026;2023-03-14T00:31:09;10.60;99.90
46634;DHT22;32362;49.986;8.026;2023-03-14T00:57:49;11.00;99.90
46634;DHT22;32362;49.986;8.026;2023-03-14T01:24:30;10.80;99.90
46634;DHT22;32362;49.986;8.026;2023-03-14T01:51:36;10.50;99.90
46634;DHT22;32362;49.986;8.026;2023-03-14T02:18:18;10.30;99.90
46634;DHT22;32362;49.986;8.026;2023-03-14T03:12:01;10.30;99.90
46634;DHT22;32362;49.986;8.026;2023-03-14T03:38:43;9.80;99.90
46634;DHT22;32362;49.986;8.026;2023-03-14T04:05:24;10.10;99.90
46634;DHT22;32362;49.986;8.026;2023-03-14T04:32:18;10.00;99.90
46634;DHT22;32362;49.986;8.026;2023-03-14T04:58:59;10.00;99.90
46634;DHT22;32362;49.986;8.026;2023-03-14T05:25:39;10.20;99.90
46634;DHT22;32362;49.986;8.026;2023-03-14T05:52:39;10.20;99.90
46634;DHT22;32362;49.986;8.026;2023-03-14T06:19:39;10.00;99.90
46634;DHT22;32362;49.986;8.026;2023-03-14T06:46:20;10.10;99.90
46634;DHT22;32362;49.986;8.026;2023-03-14T07:13:02;10.30;99.90
46634;DHT22;32362;49.986;8.026;2023-03-14T07:39:46;10.60;99.90
46634;DHT22;32362;49.986;8.026;2023-03-14T08:06:35;10.70;99.90
46634;DHT22;32362;49.986;8.026;2023-03-14T08:33:16;11.70;99.90
46634;DHT22;32362;49.986;8.026;2023-03-14T08:59:58;11.80;99.90
46634;DHT22;32362;49.986;8.026;2023-03-14T09:26:39;11.40;99.90
46634;DHT22;32362;49.986;8.026;2023-03-14T09:53:26;12.10;99.90
46634;DHT22;32362;49.986;8.026;2023-03-14T10:47:18;11.80;99.90
46634;DHT22;32362;49.986;8.026;2023-03-14T11:40:50;12.60;99.90
46634;DHT22;32362;49.986;8.026;2023-03-14T12:34:47;19.40;61.10
46634;DHT22;32362;49.986;8.026;2023-03-14T13:01:28;13.80;74.10
46634;DHT22;32362;49.986;8.026;2023-03-14T13:28:09;14.30;71.00
46634;DHT22;32362;49.986;8.026;2023-03-14T13:54:54;14.30;72.40
46634;DHT22;32362;49.986;8.026;2023-03-14T14:21:35;17.60;56.50
46634;DHT22;32362;49.986;8.026;2023-03-14T14:48:22;14.20;64.50
46634;DHT22;32362;49.986;8.026;2023-03-14T15:15:03;16.00;55.50
46634;DHT22;32362;49.986;8.026;2023-03-14T15:41:44;11.90;65.20
46634;DHT22;32362;49.986;8.026;2023-03-14T16:08:25;11.50;66.10
46634;DHT22;32362;49.986;8.026;2023-03-14T16:35:06;11.70;69.10
46634;DHT22;32362;49.986;8.026;2023-03-14T17:01:47;11.20;73.00
46634;DHT22;32362;49.986;8.026;2023-03-14T17:28:29;8.20;93.50
46634;DHT22;32362;49.986;8.026;2023-03-14T17:55:10;6.80;99.90
46634;DHT22;32362;49.986;8.026;2023-03-14T18:21:51;5.90;99.40
46634;DHT22;32362;49.986;8.026;2023-03-14T18:48:33;4.80;99.90
46634;DHT22;32362;49.986;8.026;2023-03-14T19:15:13;5.10;99.90
46634;DHT22;32362;49.986;8.026;2023-03-14T19:41:54;4.50;99.90
46634;DHT22;32362;49.986;8.026;2023-03-14T20:08:39;3.90;99.90
46634;DHT22;32362;49.986;8.026;2023-03-14T20:35:20;3.70;99.90
46634;DHT22;32362;49.986;8.026;2023-03-14T21:02:04;3.80;99.90
46634;DHT22;32362;49.986;8.026;2023-03-14T21:28:44;4.40;99.90
46634;DHT22;32362;49.986;8.026;2023-03-14T21:55:25;4.10;99.90
46634;DHT22;32362;49.986;8.026;2023-03-14T22:22:06;4.20;99.90
46634;DHT22;32362;49.986;8.026;2023-03-14T22:48:46;4.30;98.10
46634;DHT22;32362;49.986;8.026;2023-03-14T23:15:27;4.00;98.30
46634;DHT22;32362;49.986;8.026;2023-03-14T23:42:08;3.50;99.90
